Aviation Digital Data Service (ADDS)

Output produced by METARs form (0747 UTC 30 August 2015)
found at http://www.aviationweather.gov/adds/metars/
 
METAR text: KCCU 300733Z AUTO 18012G17KT 10SM CLR 12/00 A3066 RMK AO2
Conditions at: KCCU (RED CLIFF PASS , CO, US) observed 0733 UTC 30 August 2015
Temperature: 12.0°C (54°F)
Dewpoint: 0.0°C (32°F) [RH = 44%]
Pressure (altimeter): 30.66 inches Hg (1038.4 mb)
Winds: from the S (180 degrees) at 14 MPH (12 knots; 6.2 m/s)
gusting to 20 MPH (17 knots; 8.8 m/s)
Visibility: 10 or more miles (16+ km)
Ceiling: at least 12,000 feet AGL
Clouds: sky clear below 12,000 feet AGL
Weather: automated observation with no human augmentation;
there may or may not be significant weather present at this time